Terminal Aerodrome Forecast
Issued by NWS Sterling, VA

Current Version | Previous Version | Text Only | Print | Product List | Glossary Off
Versions: 1 2 3 4 5 6 7 8 9 10 11 12 13 14 15 16 17 18 19 20 21

000
FTUS41 KLWX 200800 AAA
TAFDCA
TAF AMD
KDCA 200823Z 2008/2106 05005KT P6SM BKN150 OVC200
     FM201400 07008KT P6SM SCT250
     FM210500 06004KT P6SM FEW250=

USA.gov is the U.S. government's official web portal to all federal, state and local government web resources and services.